sensor_id;sensor_type;location;lat;lon;timestamp;temperature;humidity
19654;DHT22;9975;48.046;7.804;2022-12-16T01:57:20;-2.00;99.90
19654;DHT22;9975;48.046;7.804;2022-12-16T01:59:49;-1.80;99.90
19654;DHT22;9975;48.046;7.804;2022-12-16T02:02:16;-1.80;99.90
19654;DHT22;9975;48.046;7.804;2022-12-16T02:04:42;-1.80;99.90
19654;DHT22;9975;48.046;7.804;2022-12-16T02:07:26;-1.80;99.90
19654;DHT22;9975;48.046;7.804;2022-12-16T02:09:52;-1.80;99.90
19654;DHT22;9975;48.046;7.804;2022-12-16T02:15:07;-1.60;99.90
19654;DHT22;9975;48.046;7.804;2022-12-16T02:17:52;-1.70;99.90
19654;DHT22;9975;48.046;7.804;2022-12-16T02:23:15;-1.70;99.90
19654;DHT22;9975;48.046;7.804;2022-12-16T02:35:20;-1.70;99.90
19654;DHT22;9975;48.046;7.804;2022-12-16T02:41:01;-1.80;99.90
19654;DHT22;9975;48.046;7.804;2022-12-16T02:46:15;-1.90;99.90
19654;DHT22;9975;48.046;7.804;2022-12-16T02:48:41;-1.80;99.90
19654;DHT22;9975;48.046;7.804;2022-12-16T02:51:07;-1.80;99.90
19654;DHT22;9975;48.046;7.804;2022-12-16T02:53:37;-1.70;99.90
19654;DHT22;9975;48.046;7.804;2022-12-16T03:01:32;-1.60;99.90
19654;DHT22;9975;48.046;7.804;2022-12-16T03:04:28;-1.70;99.90
19654;DHT22;9975;48.046;7.804;2022-12-16T03:06:55;-1.70;99.90
19654;DHT22;9975;48.046;7.804;2022-12-16T03:09:29;-1.80;99.90
19654;DHT22;9975;48.046;7.804;2022-12-16T03:11:58;-1.70;99.90
19654;DHT22;9975;48.046;7.804;2022-12-16T03:14:28;-1.70;99.90
19654;DHT22;9975;48.046;7.804;2022-12-16T03:16:56;-1.60;99.90
19654;DHT22;9975;48.046;7.804;2022-12-16T03:19:23;-1.70;99.90
19654;DHT22;9975;48.046;7.804;2022-12-16T03:21:54;-1.60;99.90
19654;DHT22;9975;48.046;7.804;2022-12-16T03:24:21;-1.70;99.90
19654;DHT22;9975;48.046;7.804;2022-12-16T03:29:53;-1.80;99.90
19654;DHT22;9975;48.046;7.804;2022-12-16T03:35:21;-1.80;99.90
19654;DHT22;9975;48.046;7.804;2022-12-16T03:37:50;-1.80;99.90
19654;DHT22;9975;48.046;7.804;2022-12-16T03:40:18;-1.80;99.90
19654;DHT22;9975;48.046;7.804;2022-12-16T03:42:46;-1.80;99.90
19654;DHT22;9975;48.046;7.804;2022-12-16T03:45:19;-1.70;99.90
19654;DHT22;9975;48.046;7.804;2022-12-16T03:47:51;-1.80;99.90
19654;DHT22;9975;48.046;7.804;2022-12-16T03:50:19;-1.80;99.90
19654;DHT22;9975;48.046;7.804;2022-12-16T03:52:45;-1.80;99.90
19654;DHT22;9975;48.046;7.804;2022-12-16T03:57:37;-1.80;99.90
19654;DHT22;9975;48.046;7.804;2022-12-16T04:00:04;-1.90;99.90
19654;DHT22;9975;48.046;7.804;2022-12-16T04:02:30;-1.80;99.90
19654;DHT22;9975;48.046;7.804;2022-12-16T04:07:21;-1.90;99.90
19654;DHT22;9975;48.046;7.804;2022-12-16T04:09:50;-1.90;99.90
19654;DHT22;9975;48.046;7.804;2022-12-16T04:12:16;-1.90;99.90
19654;DHT22;9975;48.046;7.804;2022-12-16T04:15:00;-1.90;99.90
19654;DHT22;9975;48.046;7.804;2022-12-16T04:17:44;-1.90;99.90
19654;DHT22;9975;48.046;7.804;2022-12-16T04:20:34;-1.80;99.90
19654;DHT22;9975;48.046;7.804;2022-12-16T04:23:19;-1.80;99.90
19654;DHT22;9975;48.046;7.804;2022-12-16T04:26:04;-1.90;99.90
19654;DHT22;9975;48.046;7.804;2022-12-16T04:30:56;-1.70;99.90
19654;DHT22;9975;48.046;7.804;2022-12-16T04:33:22;-1.70;99.90
19654;DHT22;9975;48.046;7.804;2022-12-16T04:36:09;-1.70;99.90
19654;DHT22;9975;48.046;7.804;2022-12-16T04:41:37;-1.90;99.90
19654;DHT22;9975;48.046;7.804;2022-12-16T04:44:21;-2.00;99.90
19654;DHT22;9975;48.046;7.804;2022-12-16T04:47:05;-1.70;99.90
19654;DHT22;9975;48.046;7.804;2022-12-16T04:49:49;-1.80;99.90
19654;DHT22;9975;48.046;7.804;2022-12-16T04:52:33;-1.70;99.90
19654;DHT22;9975;48.046;7.804;2022-12-16T04:55:17;-1.80;99.90
19654;DHT22;9975;48.046;7.804;2022-12-16T04:58:02;-1.90;99.90
19654;DHT22;9975;48.046;7.804;2022-12-16T05:00:48;-1.90;99.90
19654;DHT22;9975;48.046;7.804;2022-12-16T05:03:33;-1.90;99.90
19654;DHT22;9975;48.046;7.804;2022-12-16T05:06:18;-1.80;99.90
19654;DHT22;9975;48.046;7.804;2022-12-16T05:09:03;-1.90;99.90
19654;DHT22;9975;48.046;7.804;2022-12-16T05:11:48;-1.90;99.90
19654;DHT22;9975;48.046;7.804;2022-12-16T05:17:18;-1.90;99.90
19654;DHT22;9975;48.046;7.804;2022-12-16T05:20:03;-1.90;99.90
19654;DHT22;9975;48.046;7.804;2022-12-16T05:22:47;-1.90;99.90
19654;DHT22;9975;48.046;7.804;2022-12-16T05:25:31;-1.80;99.90
19654;DHT22;9975;48.046;7.804;2022-12-16T05:28:15;-2.10;99.90
19654;DHT22;9975;48.046;7.804;2022-12-16T05:31:22;-2.10;99.90
19654;DHT22;9975;48.046;7.804;2022-12-16T05:34:07;-2.10;99.90
19654;DHT22;9975;48.046;7.804;2022-12-16T05:36:52;-2.00;99.90
19654;DHT22;9975;48.046;7.804;2022-12-16T05:39:36;-2.10;99.90
19654;DHT22;9975;48.046;7.804;2022-12-16T05:42:20;-2.10;99.90
19654;DHT22;9975;48.046;7.804;2022-12-16T05:45:04;-2.20;99.90
19654;DHT22;9975;48.046;7.804;2022-12-16T05:47:48;-2.20;99.90
19654;DHT22;9975;48.046;7.804;2022-12-16T05:50:33;-2.20;99.90
19654;DHT22;9975;48.046;7.804;2022-12-16T05:53:17;-2.10;99.90
19654;DHT22;9975;48.046;7.804;2022-12-16T05:56:01;-2.20;99.90
19654;DHT22;9975;48.046;7.804;2022-12-16T05:58:45;-2.20;99.90
19654;DHT22;9975;48.046;7.804;2022-12-16T06:01:29;-2.20;99.90
19654;DHT22;9975;48.046;7.804;2022-12-16T06:04:13;-2.10;99.90
19654;DHT22;9975;48.046;7.804;2022-12-16T06:06:57;-2.10;99.90
19654;DHT22;9975;48.046;7.804;2022-12-16T06:09:41;-2.10;99.90
19654;DHT22;9975;48.046;7.804;2022-12-16T06:12:25;-2.10;99.90
19654;DHT22;9975;48.046;7.804;2022-12-16T06:15:10;-2.10;99.90
19654;DHT22;9975;48.046;7.804;2022-12-16T06:17:54;-2.10;99.90
19654;DHT22;9975;48.046;7.804;2022-12-16T06:20:39;-2.20;99.90
19654;DHT22;9975;48.046;7.804;2022-12-16T06:23:23;-2.10;99.90
19654;DHT22;9975;48.046;7.804;2022-12-16T06:26:07;-2.00;99.90
19654;DHT22;9975;48.046;7.804;2022-12-16T06:28:51;-1.90;99.90
19654;DHT22;9975;48.046;7.804;2022-12-16T06:31:35;-2.00;99.90
19654;DHT22;9975;48.046;7.804;2022-12-16T06:34:19;-2.00;99.90
19654;DHT22;9975;48.046;7.804;2022-12-16T06:37:03;-2.10;99.90
19654;DHT22;9975;48.046;7.804;2022-12-16T06:39:47;-2.00;99.90
19654;DHT22;9975;48.046;7.804;2022-12-16T06:42:31;-2.20;99.90
19654;DHT22;9975;48.046;7.804;2022-12-16T06:45:15;-2.00;99.90
19654;DHT22;9975;48.046;7.804;2022-12-16T06:50:44;-2.10;99.90
19654;DHT22;9975;48.046;7.804;2022-12-16T06:53:28;-2.10;99.90
19654;DHT22;9975;48.046;7.804;2022-12-16T06:56:12;-2.20;99.90
19654;DHT22;9975;48.046;7.804;2022-12-16T06:58:57;-2.10;99.90
19654;DHT22;9975;48.046;7.804;2022-12-16T07:01:41;-2.10;99.90
19654;DHT22;9975;48.046;7.804;2022-12-16T07:07:25;-2.00;99.90
19654;DHT22;9975;48.046;7.804;2022-12-16T07:10:09;-2.10;99.90
19654;DHT22;9975;48.046;7.804;2022-12-16T07:12:57;-2.10;99.90
19654;DHT22;9975;48.046;7.804;2022-12-16T07:15:41;-1.80;99.90
19654;DHT22;9975;48.046;7.804;2022-12-16T07:18:26;-2.00;99.90
19654;DHT22;9975;48.046;7.804;2022-12-16T07:21:10;-1.90;99.90
19654;DHT22;9975;48.046;7.804;2022-12-16T07:24:04;-1.90;99.90
19654;DHT22;9975;48.046;7.804;2022-12-16T07:26:59;-1.90;99.90
19654;DHT22;9975;48.046;7.804;2022-12-16T07:29:44;-1.90;99.90
19654;DHT22;9975;48.046;7.804;2022-12-16T07:32:28;-1.90;99.90
19654;DHT22;9975;48.046;7.804;2022-12-16T07:35:12;-1.70;99.90
19654;DHT22;9975;48.046;7.804;2022-12-16T07:37:56;-1.60;99.90
19654;DHT22;9975;48.046;7.804;2022-12-16T07:40:40;-1.70;99.90
19654;DHT22;9975;48.046;7.804;2022-12-16T07:43:27;-1.70;99.90
19654;DHT22;9975;48.046;7.804;2022-12-16T07:48:56;0.70;99.90
19654;DHT22;9975;48.046;7.804;2022-12-16T07:51:40;-1.60;99.90
19654;DHT22;9975;48.046;7.804;2022-12-16T07:54:25;-1.60;99.90
19654;DHT22;9975;48.046;7.804;2022-12-16T07:59:53;-1.70;99.90
19654;DHT22;9975;48.046;7.804;2022-12-16T08:02:37;-1.70;99.90
19654;DHT22;9975;48.046;7.804;2022-12-16T08:05:21;-1.60;99.90
19654;DHT22;9975;48.046;7.804;2022-12-16T08:08:05;-1.50;99.90
19654;DHT22;9975;48.046;7.804;2022-12-16T08:10:49;-1.50;99.90
19654;DHT22;9975;48.046;7.804;2022-12-16T08:13:33;-1.50;99.90
19654;DHT22;9975;48.046;7.804;2022-12-16T08:16:17;-1.40;99.90
19654;DHT22;9975;48.046;7.804;2022-12-16T08:19:01;-1.50;99.90
19654;DHT22;9975;48.046;7.804;2022-12-16T08:21:45;-1.50;99.90
19654;DHT22;9975;48.046;7.804;2022-12-16T08:24:29;-1.40;99.90
19654;DHT22;9975;48.046;7.804;2022-12-16T08:29:58;-1.40;99.90
19654;DHT22;9975;48.046;7.804;2022-12-16T08:32:42;-1.60;99.90
19654;DHT22;9975;48.046;7.804;2022-12-16T08:35:26;-1.50;99.90
19654;DHT22;9975;48.046;7.804;2022-12-16T08:38:10;-1.40;99.90
19654;DHT22;9975;48.046;7.804;2022-12-16T08:40:55;-1.40;99.90
19654;DHT22;9975;48.046;7.804;2022-12-16T08:43:39;-1.40;99.90
19654;DHT22;9975;48.046;7.804;2022-12-16T08:46:23;-1.40;99.90
19654;DHT22;9975;48.046;7.804;2022-12-16T08:49:07;-1.50;99.90
19654;DHT22;9975;48.046;7.804;2022-12-16T08:51:51;-1.30;99.90
19654;DHT22;9975;48.046;7.804;2022-12-16T08:54:35;-1.30;99.90
19654;DHT22;9975;48.046;7.804;2022-12-16T08:57:20;-1.30;99.90
19654;DHT22;9975;48.046;7.804;2022-12-16T09:00:05;-1.20;99.90
19654;DHT22;9975;48.046;7.804;2022-12-16T09:02:56;-1.20;99.90
19654;DHT22;9975;48.046;7.804;2022-12-16T09:05:42;-1.30;99.90
19654;DHT22;9975;48.046;7.804;2022-12-16T09:08:27;-1.10;99.90
19654;DHT22;9975;48.046;7.804;2022-12-16T09:11:12;-1.20;99.90
19654;DHT22;9975;48.046;7.804;2022-12-16T09:16:41;-1.50;99.90
19654;DHT22;9975;48.046;7.804;2022-12-16T09:22:09;-1.60;99.90
19654;DHT22;9975;48.046;7.804;2022-12-16T09:24:53;-1.50;99.90
19654;DHT22;9975;48.046;7.804;2022-12-16T09:27:39;-1.50;99.90
19654;DHT22;9975;48.046;7.804;2022-12-16T09:30:23;-1.60;99.90
19654;DHT22;9975;48.046;7.804;2022-12-16T09:33:07;-1.50;99.90
19654;DHT22;9975;48.046;7.804;2022-12-16T09:35:51;-1.40;99.90
19654;DHT22;9975;48.046;7.804;2022-12-16T09:38:35;-1.60;99.90
19654;DHT22;9975;48.046;7.804;2022-12-16T09:44:27;-1.70;99.90
19654;DHT22;9975;48.046;7.804;2022-12-16T09:50:17;-2.00;99.90
19654;DHT22;9975;48.046;7.804;2022-12-16T09:53:04;-1.70;99.90
19654;DHT22;9975;48.046;7.804;2022-12-16T09:55:50;-1.90;99.90
19654;DHT22;9975;48.046;7.804;2022-12-16T09:58:58;-2.00;99.90
19654;DHT22;9975;48.046;7.804;2022-12-16T10:02:09;-2.10;99.90
19654;DHT22;9975;48.046;7.804;2022-12-16T10:07:49;-2.10;99.90
19654;DHT22;9975;48.046;7.804;2022-12-16T10:10:51;-2.00;99.90
19654;DHT22;9975;48.046;7.804;2022-12-16T10:14:04;-2.00;99.90
19654;DHT22;9975;48.046;7.804;2022-12-16T10:16:52;-1.90;99.90
19654;DHT22;9975;48.046;7.804;2022-12-16T10:19:57;-2.10;99.90
19654;DHT22;9975;48.046;7.804;2022-12-16T10:22:57;-1.90;99.90
19654;DHT22;9975;48.046;7.804;2022-12-16T10:25:59;-2.10;99.90
19654;DHT22;9975;48.046;7.804;2022-12-16T10:28:47;-2.10;99.90
19654;DHT22;9975;48.046;7.804;2022-12-16T10:31:33;-2.00;99.90
19654;DHT22;9975;48.046;7.804;2022-12-16T10:34:20;-2.00;99.90
19654;DHT22;9975;48.046;7.804;2022-12-16T10:37:04;-2.00;99.90
19654;DHT22;9975;48.046;7.804;2022-12-16T10:39:53;-1.90;99.90
19654;DHT22;9975;48.046;7.804;2022-12-16T10:43:33;-1.70;99.90
19654;DHT22;9975;48.046;7.804;2022-12-16T10:46:21;-1.50;99.90
19654;DHT22;9975;48.046;7.804;2022-12-16T10:49:17;-1.70;99.90
19654;DHT22;9975;48.046;7.804;2022-12-16T10:52:02;-1.60;99.90
19654;DHT22;9975;48.046;7.804;2022-12-16T10:58:18;-1.50;99.90
19654;DHT22;9975;48.046;7.804;2022-12-16T11:01:24;-1.60;99.90
19654;DHT22;9975;48.046;7.804;2022-12-16T11:04:27;-1.70;99.90
19654;DHT22;9975;48.046;7.804;2022-12-16T11:07:30;-1.60;99.90
19654;DHT22;9975;48.046;7.804;2022-12-16T11:10:37;-1.40;99.90
19654;DHT22;9975;48.046;7.804;2022-12-16T11:13:33;-1.30;99.90
19654;DHT22;9975;48.046;7.804;2022-12-16T11:16:28;-1.20;99.90
19654;DHT22;9975;48.046;7.804;2022-12-16T11:19:26;-1.10;99.90
19654;DHT22;9975;48.046;7.804;2022-12-16T11:22:21;-1.10;99.90
19654;DHT22;9975;48.046;7.804;2022-12-16T11:25:14;-1.00;99.90
19654;DHT22;9975;48.046;7.804;2022-12-16T11:28:12;-0.90;99.90
19654;DHT22;9975;48.046;7.804;2022-12-16T11:31:01;-0.90;99.90
19654;DHT22;9975;48.046;7.804;2022-12-16T11:33:48;-1.10;99.90
19654;DHT22;9975;48.046;7.804;2022-12-16T11:36:35;-0.90;99.90
19654;DHT22;9975;48.046;7.804;2022-12-16T11:39:22;-1.20;99.90
19654;DHT22;9975;48.046;7.804;2022-12-16T11:42:23;-1.20;99.90
19654;DHT22;9975;48.046;7.804;2022-12-16T11:45:13;-1.30;99.90
19654;DHT22;9975;48.046;7.804;2022-12-16T11:48:31;-1.50;99.90
19654;DHT22;9975;48.046;7.804;2022-12-16T11:51:20;-1.50;99.90
19654;DHT22;9975;48.046;7.804;2022-12-16T11:54:14;-1.40;99.90
19654;DHT22;9975;48.046;7.804;2022-12-16T11:57:01;-1.40;99.90
19654;DHT22;9975;48.046;7.804;2022-12-16T11:59:57;-1.00;99.90
19654;DHT22;9975;48.046;7.804;2022-12-16T12:12:10;-1.30;99.90
19654;DHT22;9975;48.046;7.804;2022-12-16T12:21:38;-1.30;99.90
19654;DHT22;9975;48.046;7.804;2022-12-16T12:24:41;-1.40;99.90
19654;DHT22;9975;48.046;7.804;2022-12-16T12:30:18;-1.40;99.90
19654;DHT22;9975;48.046;7.804;2022-12-16T12:54:33;-1.10;99.90
19654;DHT22;9975;48.046;7.804;2022-12-16T12:57:23;-0.90;99.90
19654;DHT22;9975;48.046;7.804;2022-12-16T13:00:19;-0.70;99.90
19654;DHT22;9975;48.046;7.804;2022-12-16T13:03:53;-0.50;99.90
19654;DHT22;9975;48.046;7.804;2022-12-16T13:06:13;-0.60;99.90
19654;DHT22;9975;48.046;7.804;2022-12-16T13:08:58;-0.70;99.90
19654;DHT22;9975;48.046;7.804;2022-12-16T13:15:07;-1.00;99.90
19654;DHT22;9975;48.046;7.804;2022-12-16T13:27:15;-1.20;99.90
19654;DHT22;9975;48.046;7.804;2022-12-16T13:35:56;-0.80;99.90
19654;DHT22;9975;48.046;7.804;2022-12-16T13:38:45;-0.90;99.90
19654;DHT22;9975;48.046;7.804;2022-12-16T13:53:27;-0.90;99.90
19654;DHT22;9975;48.046;7.804;2022-12-16T13:56:14;-0.80;99.90
19654;DHT22;9975;48.046;7.804;2022-12-16T13:59:03;-1.00;99.90
19654;DHT22;9975;48.046;7.804;2022-12-16T14:01:53;-0.60;99.90
19654;DHT22;9975;48.046;7.804;2022-12-16T14:04:43;-0.60;99.90
19654;DHT22;9975;48.046;7.804;2022-12-16T14:07:30;-0.50;99.90
19654;DHT22;9975;48.046;7.804;2022-12-16T14:10:38;-0.50;99.90
19654;DHT22;9975;48.046;7.804;2022-12-16T14:16:50;-0.30;99.90
19654;DHT22;9975;48.046;7.804;2022-12-16T14:25:57;-0.70;99.90
19654;DHT22;9975;48.046;7.804;2022-12-16T14:28:46;-0.90;99.90
19654;DHT22;9975;48.046;7.804;2022-12-16T14:31:36;-1.00;99.90
19654;DHT22;9975;48.046;7.804;2022-12-16T14:34:24;-1.10;99.90
19654;DHT22;9975;48.046;7.804;2022-12-16T14:37:35;-1.10;99.90
19654;DHT22;9975;48.046;7.804;2022-12-16T14:40:30;-1.20;99.90
19654;DHT22;9975;48.046;7.804;2022-12-16T14:43:20;-1.20;99.90
19654;DHT22;9975;48.046;7.804;2022-12-16T14:46:16;-1.30;99.90
19654;DHT22;9975;48.046;7.804;2022-12-16T14:51:48;-1.20;99.90
19654;DHT22;9975;48.046;7.804;2022-12-16T14:54:37;-1.10;99.90
19654;DHT22;9975;48.046;7.804;2022-12-16T14:57:25;-1.10;99.90
19654;DHT22;9975;48.046;7.804;2022-12-16T15:00:21;-1.20;99.90
19654;DHT22;9975;48.046;7.804;2022-12-16T15:03:44;-1.10;99.90
19654;DHT22;9975;48.046;7.804;2022-12-16T15:06:44;-1.00;99.90
19654;DHT22;9975;48.046;7.804;2022-12-16T15:09:38;-1.00;99.90
19654;DHT22;9975;48.046;7.804;2022-12-16T15:12:28;-1.00;99.90
19654;DHT22;9975;48.046;7.804;2022-12-16T15:15:31;-1.00;99.90
19654;DHT22;9975;48.046;7.804;2022-12-16T15:18:18;-1.00;99.90
19654;DHT22;9975;48.046;7.804;2022-12-16T15:21:06;-1.00;99.90
19654;DHT22;9975;48.046;7.804;2022-12-16T15:23:50;-1.10;99.90
19654;DHT22;9975;48.046;7.804;2022-12-16T15:26:35;-1.20;99.90
19654;DHT22;9975;48.046;7.804;2022-12-16T15:29:46;-1.20;99.90
19654;DHT22;9975;48.046;7.804;2022-12-16T15:32:32;-1.30;99.90
19654;DHT22;9975;48.046;7.804;2022-12-16T15:38:49;-1.50;99.90
19654;DHT22;9975;48.046;7.804;2022-12-16T15:41:35;-1.50;99.90
19654;DHT22;9975;48.046;7.804;2022-12-16T15:44:27;-1.40;99.90
19654;DHT22;9975;48.046;7.804;2022-12-16T15:47:31;-1.50;99.90
19654;DHT22;9975;48.046;7.804;2022-12-16T15:50:19;-1.50;99.90
19654;DHT22;9975;48.046;7.804;2022-12-16T15:56:23;-1.50;99.90
19654;DHT22;9975;48.046;7.804;2022-12-16T15:59:29;-1.50;99.90
19654;DHT22;9975;48.046;7.804;2022-12-16T16:02:20;-1.40;99.90
19654;DHT22;9975;48.046;7.804;2022-12-16T16:05:20;-1.40;99.90
19654;DHT22;9975;48.046;7.804;2022-12-16T16:08:05;-1.30;99.90
19654;DHT22;9975;48.046;7.804;2022-12-16T16:10:49;-1.60;99.90
19654;DHT22;9975;48.046;7.804;2022-12-16T16:13:34;-1.70;99.90
19654;DHT22;9975;48.046;7.804;2022-12-16T16:16:18;-1.70;99.90
19654;DHT22;9975;48.046;7.804;2022-12-16T16:19:03;-1.60;99.90
19654;DHT22;9975;48.046;7.804;2022-12-16T16:21:47;-1.80;99.90
19654;DHT22;9975;48.046;7.804;2022-12-16T16:24:31;-1.90;99.90
19654;DHT22;9975;48.046;7.804;2022-12-16T16:27:17;-1.80;99.90
19654;DHT22;9975;48.046;7.804;2022-12-16T16:30:01;-1.80;99.90
19654;DHT22;9975;48.046;7.804;2022-12-16T16:32:45;-1.80;99.90
19654;DHT22;9975;48.046;7.804;2022-12-16T16:35:31;-1.80;99.90
19654;DHT22;9975;48.046;7.804;2022-12-16T16:38:15;-1.90;99.90
19654;DHT22;9975;48.046;7.804;2022-12-16T16:41:00;-2.00;99.90
19654;DHT22;9975;48.046;7.804;2022-12-16T16:43:44;-1.90;99.90
19654;DHT22;9975;48.046;7.804;2022-12-16T16:46:37;-2.10;99.90
19654;DHT22;9975;48.046;7.804;2022-12-16T16:52:11;-2.00;99.90
19654;DHT22;9975;48.046;7.804;2022-12-16T16:54:56;-1.80;99.90
19654;DHT22;9975;48.046;7.804;2022-12-16T16:57:40;-2.00;99.90
19654;DHT22;9975;48.046;7.804;2022-12-16T17:00:24;-2.10;99.90
19654;DHT22;9975;48.046;7.804;2022-12-16T17:03:08;-2.30;99.90
19654;DHT22;9975;48.046;7.804;2022-12-16T17:05:52;-2.20;99.90
19654;DHT22;9975;48.046;7.804;2022-12-16T17:08:37;-2.10;99.90
19654;DHT22;9975;48.046;7.804;2022-12-16T17:11:21;-2.00;99.90
19654;DHT22;9975;48.046;7.804;2022-12-16T17:14:11;-2.00;99.90
19654;DHT22;9975;48.046;7.804;2022-12-16T17:16:55;-2.10;99.90
19654;DHT22;9975;48.046;7.804;2022-12-16T17:19:39;-2.00;99.90
19654;DHT22;9975;48.046;7.804;2022-12-16T17:27:53;-1.80;99.90
19654;DHT22;9975;48.046;7.804;2022-12-16T17:30:37;-1.80;99.90
19654;DHT22;9975;48.046;7.804;2022-12-16T17:38:50;-2.00;99.90
19654;DHT22;9975;48.046;7.804;2022-12-16T17:41:34;-1.70;99.90
19654;DHT22;9975;48.046;7.804;2022-12-16T17:44:18;-1.60;99.90
19654;DHT22;9975;48.046;7.804;2022-12-16T17:47:03;-1.80;99.90
19654;DHT22;9975;48.046;7.804;2022-12-16T17:52:31;-1.80;99.90
19654;DHT22;9975;48.046;7.804;2022-12-16T17:55:15;-1.90;99.90
19654;DHT22;9975;48.046;7.804;2022-12-16T17:57:59;-1.70;99.90
19654;DHT22;9975;48.046;7.804;2022-12-16T18:00:43;-2.00;99.90
19654;DHT22;9975;48.046;7.804;2022-12-16T18:03:28;-1.70;99.90
19654;DHT22;9975;48.046;7.804;2022-12-16T18:06:12;-1.80;99.90
19654;DHT22;9975;48.046;7.804;2022-12-16T18:09:04;-1.70;99.90
19654;DHT22;9975;48.046;7.804;2022-12-16T18:11:49;-1.80;99.90
19654;DHT22;9975;48.046;7.804;2022-12-16T18:14:33;-2.00;99.90
19654;DHT22;9975;48.046;7.804;2022-12-16T18:17:17;-1.90;99.90
19654;DHT22;9975;48.046;7.804;2022-12-16T18:20:04;-2.00;99.90
19654;DHT22;9975;48.046;7.804;2022-12-16T18:22:51;-2.00;99.90
19654;DHT22;9975;48.046;7.804;2022-12-16T18:25:36;-2.20;99.90
19654;DHT22;9975;48.046;7.804;2022-12-16T18:28:20;-2.00;99.90
19654;DHT22;9975;48.046;7.804;2022-12-16T18:31:08;-2.00;99.90
19654;DHT22;9975;48.046;7.804;2022-12-16T18:33:53;-2.10;99.90
19654;DHT22;9975;48.046;7.804;2022-12-16T18:36:36;-2.00;99.90
19654;DHT22;9975;48.046;7.804;2022-12-16T18:42:05;-2.10;99.90
19654;DHT22;9975;48.046;7.804;2022-12-16T18:44:50;-2.00;99.90
19654;DHT22;9975;48.046;7.804;2022-12-16T18:47:34;-2.10;99.90
19654;DHT22;9975;48.046;7.804;2022-12-16T18:53:03;-2.10;99.90
19654;DHT22;9975;48.046;7.804;2022-12-16T18:55:47;-2.00;99.90
19654;DHT22;9975;48.046;7.804;2022-12-16T18:58:34;-2.10;99.90
19654;DHT22;9975;48.046;7.804;2022-12-16T19:04:03;-2.10;99.90
19654;DHT22;9975;48.046;7.804;2022-12-16T19:06:47;-2.20;99.90
19654;DHT22;9975;48.046;7.804;2022-12-16T19:15:00;-2.30;99.90
19654;DHT22;9975;48.046;7.804;2022-12-16T19:17:44;-2.20;99.90
19654;DHT22;9975;48.046;7.804;2022-12-16T19:20:28;-2.30;99.90
19654;DHT22;9975;48.046;7.804;2022-12-16T19:23:26;-2.20;99.90
19654;DHT22;9975;48.046;7.804;2022-12-16T19:26:10;-2.30;99.90
19654;DHT22;9975;48.046;7.804;2022-12-16T19:31:38;-2.20;99.90
19654;DHT22;9975;48.046;7.804;2022-12-16T19:34:22;-2.20;99.90
19654;DHT22;9975;48.046;7.804;2022-12-16T19:37:06;-2.20;99.90
19654;DHT22;9975;48.046;7.804;2022-12-16T19:39:50;-2.20;99.90
19654;DHT22;9975;48.046;7.804;2022-12-16T19:45:19;-2.20;99.90
19654;DHT22;9975;48.046;7.804;2022-12-16T19:48:04;-2.30;99.90
19654;DHT22;9975;48.046;7.804;2022-12-16T19:50:55;-2.30;99.90
19654;DHT22;9975;48.046;7.804;2022-12-16T19:53:39;-2.10;99.90
19654;DHT22;9975;48.046;7.804;2022-12-16T19:56:23;-2.30;99.90
19654;DHT22;9975;48.046;7.804;2022-12-16T19:59:07;-2.20;99.90
19654;DHT22;9975;48.046;7.804;2022-12-16T20:04:36;-2.10;99.90
19654;DHT22;9975;48.046;7.804;2022-12-16T20:10:05;-2.30;99.90
19654;DHT22;9975;48.046;7.804;2022-12-16T20:12:49;-2.40;99.90
19654;DHT22;9975;48.046;7.804;2022-12-16T20:15:33;-2.40;99.90
19654;DHT22;9975;48.046;7.804;2022-12-16T20:18:17;-2.50;99.90
19654;DHT22;9975;48.046;7.804;2022-12-16T20:21:02;-2.50;99.90
19654;DHT22;9975;48.046;7.804;2022-12-16T20:23:47;-2.50;99.90
19654;DHT22;9975;48.046;7.804;2022-12-16T20:26:31;-2.50;99.90
19654;DHT22;9975;48.046;7.804;2022-12-16T20:29:15;-2.50;99.90
19654;DHT22;9975;48.046;7.804;2022-12-16T20:31:59;-2.40;99.90
19654;DHT22;9975;48.046;7.804;2022-12-16T20:34:43;-2.60;99.90
19654;DHT22;9975;48.046;7.804;2022-12-16T20:37:27;-2.60;99.90
19654;DHT22;9975;48.046;7.804;2022-12-16T20:40:11;-2.90;99.90
19654;DHT22;9975;48.046;7.804;2022-12-16T20:42:55;-2.90;99.90
19654;DHT22;9975;48.046;7.804;2022-12-16T20:45:40;-3.00;99.90
19654;DHT22;9975;48.046;7.804;2022-12-16T20:48:24;-3.20;99.90
19654;DHT22;9975;48.046;7.804;2022-12-16T20:51:08;-3.00;99.90
19654;DHT22;9975;48.046;7.804;2022-12-16T20:53:52;-2.90;99.90
19654;DHT22;9975;48.046;7.804;2022-12-16T20:56:36;-2.80;99.90
19654;DHT22;9975;48.046;7.804;2022-12-16T20:59:20;-2.80;99.90
19654;DHT22;9975;48.046;7.804;2022-12-16T21:02:05;-2.70;99.90
19654;DHT22;9975;48.046;7.804;2022-12-16T21:07:34;-2.90;99.90
19654;DHT22;9975;48.046;7.804;2022-12-16T21:10:18;-4.10;99.90
19654;DHT22;9975;48.046;7.804;2022-12-16T21:13:07;-2.70;99.90
19654;DHT22;9975;48.046;7.804;2022-12-16T21:15:52;-2.60;99.90
19654;DHT22;9975;48.046;7.804;2022-12-16T21:18:36;-2.70;99.90
19654;DHT22;9975;48.046;7.804;2022-12-16T21:21:21;-2.60;99.90
19654;DHT22;9975;48.046;7.804;2022-12-16T21:24:06;-2.80;99.90
19654;DHT22;9975;48.046;7.804;2022-12-16T21:26:50;-2.90;99.90
19654;DHT22;9975;48.046;7.804;2022-12-16T21:29:34;-3.10;99.90
19654;DHT22;9975;48.046;7.804;2022-12-16T21:32:18;-3.00;99.90
19654;DHT22;9975;48.046;7.804;2022-12-16T21:35:02;-3.10;99.90
19654;DHT22;9975;48.046;7.804;2022-12-16T21:37:46;-3.10;99.90
19654;DHT22;9975;48.046;7.804;2022-12-16T21:40:31;-3.00;99.90
19654;DHT22;9975;48.046;7.804;2022-12-16T21:43:15;-3.20;99.90
19654;DHT22;9975;48.046;7.804;2022-12-16T21:45:59;-3.10;99.90
19654;DHT22;9975;48.046;7.804;2022-12-16T21:48:43;-3.10;99.90
19654;DHT22;9975;48.046;7.804;2022-12-16T21:54:12;-3.20;99.90
19654;DHT22;9975;48.046;7.804;2022-12-16T21:59:43;-3.30;99.90
19654;DHT22;9975;48.046;7.804;2022-12-16T22:02:27;-3.20;99.90
19654;DHT22;9975;48.046;7.804;2022-12-16T22:05:11;-3.30;99.90
19654;DHT22;9975;48.046;7.804;2022-12-16T22:10:40;-3.10;99.90
19654;DHT22;9975;48.046;7.804;2022-12-16T22:19:04;-2.90;99.90
19654;DHT22;9975;48.046;7.804;2022-12-16T22:21:48;-2.90;99.90
19654;DHT22;9975;48.046;7.804;2022-12-16T22:24:32;-2.90;99.90
19654;DHT22;9975;48.046;7.804;2022-12-16T22:27:16;-2.90;99.90
19654;DHT22;9975;48.046;7.804;2022-12-16T22:30:00;-2.90;99.90
19654;DHT22;9975;48.046;7.804;2022-12-16T22:32:45;-2.80;99.90
19654;DHT22;9975;48.046;7.804;2022-12-16T22:35:30;-2.80;99.90
19654;DHT22;9975;48.046;7.804;2022-12-16T22:38:14;-3.10;99.90
19654;DHT22;9975;48.046;7.804;2022-12-16T22:40:59;-2.90;99.90
19654;DHT22;9975;48.046;7.804;2022-12-16T22:43:43;-3.10;99.90
19654;DHT22;9975;48.046;7.804;2022-12-16T22:46:28;-3.00;99.90
19654;DHT22;9975;48.046;7.804;2022-12-16T22:49:12;-3.10;99.90
19654;DHT22;9975;48.046;7.804;2022-12-16T22:51:56;-3.00;99.90
19654;DHT22;9975;48.046;7.804;2022-12-16T22:54:41;-3.00;99.90
19654;DHT22;9975;48.046;7.804;2022-12-16T22:57:30;-2.90;99.90
19654;DHT22;9975;48.046;7.804;2022-12-16T23:00:15;-2.70;99.90
19654;DHT22;9975;48.046;7.804;2022-12-16T23:03:00;-2.70;99.90
19654;DHT22;9975;48.046;7.804;2022-12-16T23:05:46;-2.70;99.90
19654;DHT22;9975;48.046;7.804;2022-12-16T23:08:30;-2.80;99.90
19654;DHT22;9975;48.046;7.804;2022-12-16T23:11:24;-2.90;99.90
19654;DHT22;9975;48.046;7.804;2022-12-16T23:14:09;-3.00;99.90
19654;DHT22;9975;48.046;7.804;2022-12-16T23:16:53;-3.00;99.90
19654;DHT22;9975;48.046;7.804;2022-12-16T23:19:37;-3.00;99.90
19654;DHT22;9975;48.046;7.804;2022-12-16T23:22:21;-2.90;99.90